Time;durP1;ratioP1;P1;durP2;ratioP2;P2;SDS_P1;SDS_P2;PMS_P1;PMS_P2;Temp;Humidity;BMP_temperature;BMP_pressure;BME280_temperature;BME280_humidity;BME280_pressure;Samples;Min_cycle;Max_cycle;Signal;HPM_P1;HPM_P2
2023/10/23 00:00:39;;;;;;;0.20;0.20;;;13.10;99.90;;;;;;4994511;28;20109;-82
2023/10/23 00:03:04;;;;;;;0.15;0.15;;;13.10;99.90;;;;;;4993965;28;20120;-82
2023/10/23 00:05:32;;;;;;;0.68;0.40;;;13.10;99.90;;;;;;5011714;28;20033;-82
2023/10/23 00:07:58;;;;;;;0.15;0.15;;;13.10;99.90;;;;;;5010123;28;20136;-82
2023/10/23 00:10:23;;;;;;;0.38;0.38;;;13.10;99.90;;;;;;4996755;28;20121;-82
2023/10/23 00:12:49;;;;;;;0.20;0.20;;;13.00;99.90;;;;;;4991060;28;20017;-81
2023/10/23 00:15:15;;;;;;;0.20;0.20;;;13.00;99.90;;;;;;4995083;28;20041;-81
2023/10/23 00:17:40;;;;;;;0.10;0.10;;;13.00;99.90;;;;;;5007958;28;20022;-81
2023/10/23 00:20:09;;;;;;;0.30;0.30;;;12.90;99.90;;;;;;5009782;28;20493;-82
2023/10/23 00:22:35;;;;;;;0.40;0.32;;;12.90;99.90;;;;;;4993394;28;20033;-82
2023/10/23 00:25:00;;;;;;;0.20;0.20;;;12.90;99.90;;;;;;4993785;28;20064;-82
2023/10/23 00:27:26;;;;;;;0.10;0.10;;;12.80;99.90;;;;;;5007825;28;20390;-82
2023/10/23 00:29:52;;;;;;;0.20;0.20;;;12.90;99.90;;;;;;5008458;28;20366;-82
2023/10/23 00:32:20;;;;;;;0.30;0.30;;;12.80;99.90;;;;;;5014462;28;20049;-81
2023/10/23 00:34:48;;;;;;;0.15;0.15;;;12.70;99.90;;;;;;5009883;28;20037;-82
2023/10/23 00:37:13;;;;;;;0.50;0.50;;;12.70;99.90;;;;;;5007977;28;20087;-81
2023/10/23 00:39:39;;;;;;;0.10;0.10;;;12.70;99.90;;;;;;5011361;28;20041;-82
2023/10/23 00:42:07;;;;;;;0.30;0.30;;;12.60;99.90;;;;;;4996286;28;20289;-82
2023/10/23 00:44:32;;;;;;;0.17;0.17;;;12.60;99.90;;;;;;4993151;28;20466;-83
2023/10/23 00:46:58;;;;;;;0.20;0.20;;;12.60;99.90;;;;;;5007544;28;20133;-82
2023/10/23 00:49:25;;;;;;;0.20;0.20;;;12.50;99.90;;;;;;5012125;28;20063;-82
2023/10/23 00:51:51;;;;;;;0.13;0.13;;;12.50;99.90;;;;;;5011571;28;20520;-82
2023/10/23 00:54:20;;;;;;;0.10;0.10;;;12.50;99.90;;;;;;5009149;28;20022;-82
2023/10/23 00:56:46;;;;;;;0.20;0.20;;;12.50;99.90;;;;;;5009240;28;20614;-82
2023/10/23 00:59:13;;;;;;;0.10;0.10;;;12.50;99.90;;;;;;5009472;28;20412;-82
2023/10/23 01:01:38;;;;;;;0.30;0.30;;;12.50;99.90;;;;;;5010806;28;20030;-82
2023/10/23 01:04:05;;;;;;;0.28;0.28;;;12.50;99.90;;;;;;4990812;28;20289;-82
2023/10/23 01:06:31;;;;;;;0.13;0.13;;;12.50;99.90;;;;;;5010127;28;20075;-82
2023/10/23 01:08:57;;;;;;;0.20;0.20;;;12.40;99.90;;;;;;5012943;28;20018;-82
2023/10/23 01:11:23;;;;;;;0.20;0.20;;;12.40;99.90;;;;;;5011610;28;20632;-82
2023/10/23 01:13:49;;;;;;;0.20;0.20;;;12.40;99.90;;;;;;5008865;28;20033;-81
2023/10/23 01:16:14;;;;;;;0.25;0.25;;;12.40;99.90;;;;;;5010891;28;20461;-82
2023/10/23 01:18:43;;;;;;;0.10;0.10;;;12.40;99.90;;;;;;5014192;28;20036;-82
2023/10/23 01:21:08;;;;;;;0.10;0.10;;;12.40;99.90;;;;;;5009804;28;20025;-82
2023/10/23 01:23:36;;;;;;;0.10;0.10;;;12.40;99.90;;;;;;5006915;28;20033;-82
2023/10/23 01:26:02;;;;;;;0.13;0.13;;;12.40;99.90;;;;;;5013112;28;20036;-82
2023/10/23 01:28:28;;;;;;;0.20;0.20;;;12.40;99.90;;;;;;5001476;28;20051;-81
2023/10/23 01:30:56;;;;;;;0.30;0.30;;;12.30;99.90;;;;;;5003085;28;20072;-81
2023/10/23 01:33:21;;;;;;;0.17;0.17;;;12.30;99.90;;;;;;5024004;28;20037;-81
2023/10/23 01:35:49;;;;;;;0.10;0.10;;;12.20;99.90;;;;;;5020119;28;20025;-80
2023/10/23 01:38:15;;;;;;;0.20;0.20;;;12.10;99.90;;;;;;5017319;28;20033;-82
2023/10/23 01:40:41;;;;;;;0.30;0.30;;;12.10;99.90;;;;;;5013480;28;20449;-81
2023/10/23 01:43:07;;;;;;;0.20;0.20;;;12.00;99.90;;;;;;4999908;28;20032;-81
2023/10/23 01:45:33;;;;;;;0.20;0.20;;;12.00;99.90;;;;;;5013868;28;20029;-81
2023/10/23 01:47:59;;;;;;;0.20;0.20;;;11.90;99.90;;;;;;4998781;28;20029;-81
2023/10/23 01:50:24;;;;;;;0.35;0.35;;;11.90;99.90;;;;;;5011860;28;20535;-82
2023/10/23 01:52:51;;;;;;;0.20;0.20;;;11.80;99.90;;;;;;5015510;28;20043;-81
2023/10/23 01:55:16;;;;;;;0.20;0.20;;;11.70;99.90;;;;;;5000702;28;20741;-81
2023/10/23 01:57:42;;;;;;;0.20;0.20;;;11.70;99.90;;;;;;4998483;28;20037;-81
2023/10/23 02:00:10;;;;;;;0.45;0.45;;;11.80;99.90;;;;;;5000613;28;20029;-80
2023/10/23 02:02:36;;;;;;;0.10;0.10;;;11.80;99.90;;;;;;5014720;28;20022;-81
2023/10/23 02:05:02;;;;;;;0.20;0.20;;;11.80;99.90;;;;;;5019964;28;20034;-81
2023/10/23 02:07:28;;;;;;;1.55;0.20;;;11.70;99.90;;;;;;4999274;28;20030;-81
2023/10/23 02:09:56;;;;;;;0.20;0.20;;;11.80;99.90;;;;;;4998218;28;20045;-81
2023/10/23 02:12:22;;;;;;;0.57;0.38;;;11.80;99.90;;;;;;5013619;28;20540;-81
2023/10/23 02:14:50;;;;;;;0.20;0.20;;;11.80;99.90;;;;;;5016963;28;20026;-81
2023/10/23 02:17:17;;;;;;;0.32;0.32;;;11.90;99.90;;;;;;5011109;28;20033;-82
2023/10/23 02:19:42;;;;;;;0.20;0.20;;;11.90;99.90;;;;;;5001782;28;20138;-82
2023/10/23 02:22:10;;;;;;;0.20;0.20;;;11.90;99.90;;;;;;4993615;28;20556;-81
2023/10/23 02:24:36;;;;;;;0.20;0.20;;;12.00;99.90;;;;;;5015639;28;20022;-82
2023/10/23 02:27:02;;;;;;;0.20;0.20;;;12.10;99.90;;;;;;5003780;28;20040;-81
2023/10/23 02:29:28;;;;;;;0.20;0.20;;;12.00;99.90;;;;;;4998231;28;20034;-82
2023/10/23 02:31:54;;;;;;;0.10;0.10;;;12.00;99.90;;;;;;5013798;28;20535;-80
2023/10/23 02:34:19;;;;;;;0.50;0.50;;;12.00;99.90;;;;;;5016440;28;20032;-81
2023/10/23 02:36:46;;;;;;;0.10;0.10;;;11.90;99.90;;;;;;5013585;28;20021;-82
2023/10/23 02:39:11;;;;;;;0.20;0.20;;;12.00;99.90;;;;;;5002623;28;20034;-81
2023/10/23 02:41:42;;;;;;;0.20;0.20;;;11.90;99.90;;;;;;5017634;28;20025;-82
2023/10/23 02:44:08;;;;;;;0.30;0.30;;;11.90;99.90;;;;;;5019189;28;20104;-81
2023/10/23 02:46:35;;;;;;;0.10;0.10;;;11.90;99.90;;;;;;4999192;28;20124;-82
2023/10/23 02:49:03;;;;;;;0.20;0.20;;;11.90;99.90;;;;;;4999039;28;20493;-82
2023/10/23 02:51:29;;;;;;;0.17;0.17;;;11.90;99.90;;;;;;5015968;28;20022;-81
2023/10/23 02:53:54;;;;;;;0.20;0.20;;;11.90;99.90;;;;;;5002102;28;20422;-81
2023/10/23 02:56:20;;;;;;;0.20;0.20;;;11.80;99.90;;;;;;4995496;28;20099;-81
2023/10/23 02:58:46;;;;;;;0.10;0.10;;;11.80;99.90;;;;;;5016720;28;20037;-81
2023/10/23 03:01:15;;;;;;;0.10;0.10;;;11.80;99.90;;;;;;5015959;28;20146;-81
2023/10/23 03:03:40;;;;;;;0.20;0.20;;;11.80;99.90;;;;;;5003020;28;20033;-81
2023/10/23 03:06:08;;;;;;;0.13;0.13;;;11.70;99.90;;;;;;5016547;28;20433;-82
2023/10/23 03:08:34;;;;;;;0.20;0.20;;;11.70;99.90;;;;;;4995090;28;20389;-81
2023/10/23 03:10:59;;;;;;;0.10;0.10;;;11.70;99.90;;;;;;5017490;28;20024;-82
2023/10/23 03:13:25;;;;;;;0.10;0.10;;;11.70;99.90;;;;;;5015979;28;20029;-81
2023/10/23 03:15:50;;;;;;;0.98;0.38;;;11.60;99.90;;;;;;5014004;28;20048;-82
2023/10/23 03:18:16;;;;;;;0.20;0.20;;;11.60;99.90;;;;;;4996491;28;20668;-81
2023/10/23 03:20:42;;;;;;;0.30;0.30;;;11.60;99.90;;;;;;5013637;28;20033;-81
2023/10/23 03:23:09;;;;;;;0.10;0.10;;;11.60;99.90;;;;;;5016968;28;20040;-81
2023/10/23 03:25:35;;;;;;;0.20;0.20;;;11.50;99.90;;;;;;5015980;28;20117;-81
2023/10/23 03:28:00;;;;;;;0.22;0.22;;;11.40;99.90;;;;;;5017260;28;20105;-82
2023/10/23 03:30:26;;;;;;;0.15;0.15;;;11.40;99.90;;;;;;5014762;28;20837;-81
2023/10/23 03:32:52;;;;;;;0.10;0.10;;;11.30;99.90;;;;;;5013375;28;20298;-82
2023/10/23 03:35:18;;;;;;;0.10;0.10;;;11.20;99.90;;;;;;4995703;28;20439;-81
2023/10/23 03:37:44;;;;;;;0.20;0.20;;;11.20;99.90;;;;;;5000009;28;20030;-81
2023/10/23 03:40:10;;;;;;;0.20;0.20;;;11.20;99.90;;;;;;5000016;28;20568;-81
2023/10/23 03:42:36;;;;;;;0.22;0.22;;;11.10;99.90;;;;;;5000729;28;20026;-82
2023/10/23 03:45:02;;;;;;;0.10;0.10;;;11.00;99.90;;;;;;5014443;28;20025;-81
2023/10/23 03:47:28;;;;;;;0.10;0.10;;;11.00;99.90;;;;;;5011852;28;20026;-81
2023/10/23 03:49:53;;;;;;;0.10;0.10;;;11.00;99.90;;;;;;5012041;28;20474;-81
2023/10/23 03:52:19;;;;;;;0.52;0.52;;;11.10;99.90;;;;;;4995939;28;20675;-81
2023/10/23 03:54:45;;;;;;;0.15;0.15;;;11.10;99.90;;;;;;4997652;28;20033;-81
2023/10/23 03:57:10;;;;;;;0.10;0.10;;;11.10;99.90;;;;;;5015043;28;20027;-81
2023/10/23 03:59:36;;;;;;;0.10;0.10;;;11.10;99.90;;;;;;5013986;28;20029;-83
2023/10/23 04:02:01;;;;;;;0.25;0.20;;;11.10;99.90;;;;;;4993323;28;20266;-82
2023/10/23 04:04:27;;;;;;;0.20;0.20;;;11.10;99.90;;;;;;5013032;28;20402;-82
2023/10/23 04:06:53;;;;;;;0.10;0.10;;;11.00;99.90;;;;;;5014384;28;20068;-82
2023/10/23 04:09:18;;;;;;;0.10;0.10;;;11.10;99.90;;;;;;5012888;28;20029;-82
2023/10/23 04:11:44;;;;;;;0.10;0.10;;;11.00;99.90;;;;;;4999680;28;20026;-81
2023/10/23 04:14:09;;;;;;;0.10;0.10;;;11.00;99.90;;;;;;4994587;28;20022;-81
2023/10/23 04:16:35;;;;;;;0.10;0.10;;;10.90;99.90;;;;;;5011369;28;20071;-81
2023/10/23 04:19:01;;;;;;;0.17;0.17;;;10.90;99.90;;;;;;5013236;28;20095;-82
2023/10/23 04:21:26;;;;;;;0.20;0.20;;;10.90;99.90;;;;;;5012146;28;20123;-81
2023/10/23 04:23:52;;;;;;;0.20;0.20;;;11.00;99.90;;;;;;4999169;28;20029;-81
2023/10/23 04:26:17;;;;;;;0.20;0.20;;;11.00;99.90;;;;;;5013663;28;20037;-81
2023/10/23 04:28:43;;;;;;;0.10;0.10;;;11.00;99.90;;;;;;4997149;28;20486;-81
2023/10/23 04:31:09;;;;;;;0.10;0.10;;;10.90;99.90;;;;;;5015847;28;20033;-81
2023/10/23 04:33:35;;;;;;;0.15;0.15;;;11.00;99.90;;;;;;5010183;28;20051;-81
2023/10/23 04:36:01;;;;;;;0.10;0.10;;;10.90;99.90;;;;;;5011372;28;20025;-81
2023/10/23 04:38:26;;;;;;;0.10;0.10;;;10.90;99.90;;;;;;5014243;28;20036;-81
2023/10/23 04:40:55;;;;;;;0.20;0.20;;;10.90;99.90;;;;;;5014591;28;20025;-81
2023/10/23 04:43:21;;;;;;;0.10;0.10;;;10.90;99.90;;;;;;5015981;28;20026;-82
2023/10/23 04:45:48;;;;;;;0.10;0.10;;;10.80;99.90;;;;;;4996359;28;20022;-81
2023/10/23 04:48:14;;;;;;;0.28;0.28;;;10.80;99.90;;;;;;4994673;28;20116;-82
2023/10/23 04:50:40;;;;;;;0.20;0.20;;;10.80;99.90;;;;;;5016221;28;20124;-81
2023/10/23 04:53:06;;;;;;;0.10;0.10;;;10.80;99.90;;;;;;5010640;28;20188;-81
2023/10/23 04:55:38;;;;;;;0.22;0.22;;;10.70;99.90;;;;;;5011661;28;20025;-81
2023/10/23 04:58:07;;;;;;;0.30;0.30;;;10.70;99.90;;;;;;5014575;28;20082;-81
2023/10/23 05:00:38;;;;;;;0.30;0.30;;;10.70;99.90;;;;;;4996482;28;20053;-82
2023/10/23 05:03:04;;;;;;;0.20;0.20;;;10.70;99.90;;;;;;4999450;28;20167;-82
2023/10/23 05:05:31;;;;;;;0.30;0.30;;;10.70;99.90;;;;;;5009975;28;20051;-81
2023/10/23 05:07:59;;;;;;;0.20;0.20;;;10.70;99.90;;;;;;5022469;28;20085;-81
2023/10/23 05:10:25;;;;;;;0.20;0.20;;;10.70;99.90;;;;;;4996676;28;20053;-81
2023/10/23 05:12:53;;;;;;;0.40;0.40;;;10.70;99.90;;;;;;5012831;28;20042;-81
2023/10/23 05:15:19;;;;;;;0.20;0.20;;;10.70;99.90;;;;;;5015411;28;20022;-82
2023/10/23 05:17:45;;;;;;;0.32;0.32;;;10.60;99.90;;;;;;5013639;28;20330;-82
2023/10/23 05:20:11;;;;;;;0.20;0.20;;;10.60;99.90;;;;;;5013730;28;20057;-82
2023/10/23 05:22:37;;;;;;;0.10;0.10;;;10.60;99.90;;;;;;4994444;28;20634;-82
2023/10/23 05:25:02;;;;;;;0.52;0.50;;;10.60;99.90;;;;;;5016645;28;20065;-82
2023/10/23 05:27:28;;;;;;;0.47;0.47;;;10.60;99.90;;;;;;4995756;28;20026;-83
2023/10/23 05:29:54;;;;;;;0.38;0.38;;;10.50;99.90;;;;;;4997515;28;20025;-82
2023/10/23 05:32:20;;;;;;;0.40;0.40;;;10.40;99.90;;;;;;5013750;28;20439;-82
2023/10/23 05:34:46;;;;;;;0.20;0.20;;;10.40;99.90;;;;;;5011093;28;20037;-82
2023/10/23 05:37:12;;;;;;;1.45;0.35;;;10.40;99.90;;;;;;5012549;28;20083;-82
2023/10/23 05:39:37;;;;;;;0.20;0.20;;;10.40;99.90;;;;;;5013266;28;20124;-84
2023/10/23 05:42:04;;;;;;;0.20;0.20;;;10.30;99.90;;;;;;5009934;28;20420;-82
2023/10/23 05:44:29;;;;;;;0.30;0.30;;;10.30;99.90;;;;;;5012872;28;20060;-82
2023/10/23 05:46:55;;;;;;;0.20;0.20;;;10.20;99.90;;;;;;5011251;28;20493;-82
2023/10/23 05:49:21;;;;;;;0.20;0.20;;;10.20;99.90;;;;;;5015526;28;20025;-83
2023/10/23 05:51:47;;;;;;;0.30;0.30;;;10.20;99.90;;;;;;4996450;28;20390;-82
2023/10/23 05:54:13;;;;;;;0.30;0.30;;;10.10;99.90;;;;;;5014153;28;20528;-82
2023/10/23 05:56:38;;;;;;;0.20;0.20;;;10.10;99.90;;;;;;4993720;28;20033;-82
2023/10/23 05:59:04;;;;;;;0.20;0.20;;;10.10;99.90;;;;;;5003196;28;20026;-82
2023/10/23 06:01:30;;;;;;;0.20;0.20;;;10.20;99.90;;;;;;5015191;28;20049;-82
2023/10/23 06:03:56;;;;;;;0.20;0.20;;;10.10;99.90;;;;;;5018328;28;20017;-87
2023/10/23 06:06:21;;;;;;;0.20;0.20;;;10.10;99.90;;;;;;4998275;28;20509;-81
2023/10/23 06:08:47;;;;;;;0.10;0.10;;;10.10;99.90;;;;;;5018331;28;20280;-80
2023/10/23 06:11:13;;;;;;;0.20;0.20;;;10.10;99.90;;;;;;5019168;28;20021;-81
2023/10/23 06:13:39;;;;;;;0.32;0.32;;;10.20;99.90;;;;;;5018104;28;20026;-81
2023/10/23 06:16:07;;;;;;;0.13;0.13;;;10.20;99.90;;;;;;5014505;28;20489;-81
2023/10/23 06:18:35;;;;;;;0.32;0.32;;;10.20;99.90;;;;;;4999929;28;20060;-82
2023/10/23 06:21:03;;;;;;;0.20;0.20;;;10.10;99.90;;;;;;4997334;28;20116;-80
2023/10/23 06:23:39;;;;;;;0.20;0.20;;;10.10;99.90;;;;;;4999271;28;20296;-80
2023/10/23 06:26:06;;;;;;;0.43;0.30;;;10.20;99.90;;;;;;5001551;28;20466;-79
2023/10/23 06:28:33;;;;;;;0.30;0.30;;;10.20;99.90;;;;;;5014690;28;20151;-80
2023/10/23 06:31:09;;;;;;;0.20;0.20;;;10.20;99.90;;;;;;4998326;28;20033;-80
2023/10/23 06:33:36;;;;;;;0.60;0.60;;;10.20;99.90;;;;;;5001128;28;20099;-79
2023/10/23 06:36:04;;;;;;;0.30;0.30;;;10.20;99.90;;;;;;5015459;28;20029;-80
2023/10/23 06:38:29;;;;;;;0.20;0.20;;;10.20;99.90;;;;;;5004894;28;20408;-81
2023/10/23 06:41:04;;;;;;;0.20;0.20;;;10.20;99.90;;;;;;5017787;28;20045;-80
2023/10/23 06:43:31;;;;;;;0.20;0.20;;;10.30;99.90;;;;;;5001280;28;20029;-80
2023/10/23 06:45:57;;;;;;;0.30;0.30;;;10.30;99.90;;;;;;5000294;28;20055;-80
2023/10/23 06:48:22;;;;;;;0.30;0.30;;;10.30;99.90;;;;;;5012174;28;20101;-80
2023/10/23 06:50:48;;;;;;;0.20;0.20;;;10.30;99.90;;;;;;5000633;28;20029;-81
2023/10/23 06:53:15;;;;;;;0.30;0.30;;;10.30;99.90;;;;;;5020216;28;20017;-81
2023/10/23 06:55:51;;;;;;;0.22;0.22;;;10.30;99.90;;;;;;5014256;28;20116;-82
2023/10/23 06:58:22;;;;;;;0.20;0.20;;;10.20;99.90;;;;;;5015994;28;20260;-79
2023/10/23 07:00:48;;;;;;;0.20;0.20;;;10.20;99.90;;;;;;5012801;28;20501;-80
2023/10/23 07:03:16;;;;;;;0.20;0.20;;;10.30;99.90;;;;;;5015067;28;20029;-80
2023/10/23 07:05:42;;;;;;;0.20;0.20;;;10.30;99.90;;;;;;4999366;28;20481;-80
2023/10/23 07:08:08;;;;;;;0.40;0.40;;;10.30;99.90;;;;;;5016334;28;20436;-80
2023/10/23 07:10:35;;;;;;;0.45;0.45;;;10.40;99.90;;;;;;4999932;28;20025;-80
2023/10/23 07:13:02;;;;;;;0.20;0.20;;;10.50;99.90;;;;;;5016962;28;20160;-80
2023/10/23 07:15:28;;;;;;;1.55;0.30;;;10.50;99.90;;;;;;5013093;28;20029;-80
2023/10/23 07:17:54;;;;;;;0.20;0.20;;;10.60;99.90;;;;;;5014041;28;20123;-80
2023/10/23 07:20:19;;;;;;;0.20;0.20;;;10.60;99.90;;;;;;5012787;28;21434;-82
2023/10/23 07:22:47;;;;;;;0.38;0.38;;;10.60;99.90;;;;;;5000226;28;20104;-82
2023/10/23 07:25:13;;;;;;;0.20;0.20;;;10.60;99.90;;;;;;5015465;28;20029;-81
2023/10/23 07:27:39;;;;;;;0.20;0.20;;;10.60;99.90;;;;;;5015006;28;20021;-82
2023/10/23 07:30:06;;;;;;;0.63;0.35;;;10.70;99.90;;;;;;5003257;28;20036;-82
2023/10/23 07:32:34;;;;;;;0.20;0.20;;;10.70;99.90;;;;;;4998747;28;20030;-82
2023/10/23 07:35:00;;;;;;;0.28;0.28;;;10.70;99.90;;;;;;5013955;28;20029;-82
2023/10/23 07:37:27;;;;;;;0.28;0.28;;;10.70;99.90;;;;;;5015833;28;20026;-82
2023/10/23 07:39:53;;;;;;;0.20;0.20;;;10.70;99.90;;;;;;4995167;28;20426;-81
2023/10/23 07:42:19;;;;;;;0.38;0.38;;;10.80;99.90;;;;;;5013237;28;20026;-82
2023/10/23 07:44:45;;;;;;;0.15;0.15;;;10.80;99.90;;;;;;4994743;28;20753;-82
2023/10/23 07:47:10;;;;;;;0.20;0.20;;;10.80;99.90;;;;;;5017612;28;20108;-82
2023/10/23 07:49:36;;;;;;;0.20;0.20;;;10.90;99.90;;;;;;5011027;28;20033;-80
2023/10/23 07:52:04;;;;;;;0.20;0.20;;;11.00;99.90;;;;;;5016081;28;20049;-79
2023/10/23 07:54:33;;;;;;;0.10;0.10;;;11.00;99.90;;;;;;5016488;28;20034;-79
2023/10/23 07:56:58;;;;;;;0.38;0.38;;;11.10;99.90;;;;;;5000248;28;20601;-79
2023/10/23 07:59:26;;;;;;;0.20;0.20;;;11.20;99.90;;;;;;5013552;28;20207;-80
2023/10/23 08:01:53;;;;;;;0.20;0.20;;;11.30;99.90;;;;;;5015439;28;20013;-80
2023/10/23 08:04:19;;;;;;;0.20;0.20;;;11.40;99.90;;;;;;4997841;28;20051;-80
2023/10/23 08:06:45;;;;;;;0.10;0.10;;;11.40;99.90;;;;;;4995400;28;20030;-80
2023/10/23 08:09:11;;;;;;;0.40;0.40;;;11.50;99.90;;;;;;5011860;28;20049;-79
2023/10/23 08:11:37;;;;;;;0.10;0.10;;;11.60;99.90;;;;;;5009602;28;21300;-83
2023/10/23 08:14:04;;;;;;;0.10;0.10;;;11.70;99.90;;;;;;5014257;28;20025;-80
2023/10/23 08:16:30;;;;;;;0.10;0.10;;;11.80;99.90;;;;;;4997186;28;20061;-80
2023/10/23 08:18:57;;;;;;;0.40;0.40;;;11.90;99.90;;;;;;4993432;28;20340;-80
2023/10/23 08:21:25;;;;;;;0.13;0.13;;;11.90;99.90;;;;;;5012254;28;20053;-80
2023/10/23 08:23:56;;;;;;;0.10;0.10;;;12.10;99.90;;;;;;4995766;28;20034;-80
2023/10/23 08:26:22;;;;;;;0.68;0.68;;;12.20;99.90;;;;;;5012518;28;20034;-80
2023/10/23 08:28:48;;;;;;;0.13;0.13;;;12.30;99.90;;;;;;5012285;28;20560;-78
2023/10/23 08:31:13;;;;;;;0.20;0.20;;;12.40;99.90;;;;;;4995291;28;20026;-80
2023/10/23 08:33:39;;;;;;;0.30;0.30;;;12.50;99.90;;;;;;5009753;28;20009;-80
2023/10/23 08:36:05;;;;;;;0.20;0.20;;;12.60;99.90;;;;;;4999321;28;20048;-80
2023/10/23 08:38:30;;;;;;;0.10;0.10;;;12.70;99.90;;;;;;5013126;28;20856;-81
2023/10/23 08:40:56;;;;;;;0.22;0.22;;;12.80;99.90;;;;;;5013529;28;20030;-81
2023/10/23 08:43:23;;;;;;;0.20;0.20;;;12.80;99.90;;;;;;4999337;28;20160;-81
2023/10/23 08:45:50;;;;;;;0.17;0.17;;;13.00;99.90;;;;;;5013164;28;20079;-80
2023/10/23 08:48:16;;;;;;;0.20;0.20;;;13.10;99.90;;;;;;5014928;28;20033;-79
2023/10/23 08:50:43;;;;;;;0.32;0.32;;;13.20;99.90;;;;;;5019327;28;21011;-79
2023/10/23 08:53:12;;;;;;;0.20;0.20;;;13.40;99.90;;;;;;4995940;28;20297;-79
2023/10/23 08:55:41;;;;;;;0.35;0.35;;;13.50;99.90;;;;;;5014437;28;20103;-79
2023/10/23 08:58:07;;;;;;;0.25;0.25;;;13.60;99.90;;;;;;4997154;28;20184;-79
2023/10/23 09:00:33;;;;;;;0.50;0.50;;;13.80;99.90;;;;;;5016500;28;20257;-79
2023/10/23 09:03:00;;;;;;;0.52;0.52;;;14.00;99.90;;;;;;5016348;28;20024;-80
2023/10/23 09:05:26;;;;;;;0.20;0.20;;;14.10;99.90;;;;;;5002178;28;20393;-79
2023/10/23 09:07:51;;;;;;;3.30;0.40;;;14.20;99.90;;;;;;5010453;28;20029;-79
2023/10/23 09:10:17;;;;;;;0.45;0.45;;;14.20;99.90;;;;;;5017442;28;20110;-80
2023/10/23 09:12:43;;;;;;;0.40;0.40;;;14.30;99.90;;;;;;5014861;28;20515;-80
2023/10/23 09:15:18;;;;;;;0.20;0.20;;;14.30;99.90;;;;;;4995730;28;21348;-80
2023/10/23 09:17:44;;;;;;;0.40;0.40;;;14.40;99.90;;;;;;5008957;28;20021;-81
2023/10/23 09:20:30;;;;;;;0.28;0.28;;;14.60;99.90;;;;;;4997622;28;20014;-80
2023/10/23 09:22:55;;;;;;;0.20;0.20;;;14.80;99.90;;;;;;5013856;28;20344;-80
2023/10/23 09:25:26;;;;;;;1.38;0.40;;;14.90;99.90;;;;;;4995858;28;20033;-80
2023/10/23 09:27:52;;;;;;;0.85;0.85;;;15.00;99.90;;;;;;5003095;28;20061;-80
2023/10/23 09:30:21;;;;;;;0.20;0.20;;;15.10;99.90;;;;;;5016574;28;20601;-80
2023/10/23 09:32:53;;;;;;;0.40;0.30;;;15.10;99.90;;;;;;4995876;28;20021;-81
2023/10/23 09:35:19;;;;;;;0.20;0.20;;;15.20;99.90;;;;;;5000419;28;20439;-81
2023/10/23 09:37:47;;;;;;;0.20;0.20;;;15.30;99.90;;;;;;5007167;28;20021;-81
2023/10/23 09:40:13;;;;;;;0.20;0.20;;;15.50;99.90;;;;;;5001969;28;20478;-80
2023/10/23 09:42:40;;;;;;;0.20;0.20;;;15.60;99.90;;;;;;5014019;28;20096;-80
2023/10/23 09:45:06;;;;;;;0.70;0.20;;;15.70;99.90;;;;;;5005317;28;20034;-82
2023/10/23 09:47:32;;;;;;;0.28;0.28;;;15.70;99.90;;;;;;5014508;28;20113;-82
2023/10/23 09:49:59;;;;;;;0.20;0.20;;;15.80;99.90;;;;;;5006125;28;20105;-81
2023/10/23 09:52:26;;;;;;;0.30;0.30;;;15.80;99.90;;;;;;5015642;28;20022;-82
2023/10/23 09:55:03;;;;;;;0.40;0.28;;;15.90;99.90;;;;;;5015561;28;20033;-81
2023/10/23 09:57:37;;;;;;;0.80;0.65;;;16.10;99.90;;;;;;5014245;28;20026;-81
2023/10/23 10:00:15;;;;;;;0.30;0.30;;;16.20;99.90;;;;;;5018628;28;20033;-80
2023/10/23 10:02:50;;;;;;;0.30;0.30;;;16.30;99.90;;;;;;4997930;28;20025;-81
2023/10/23 10:05:25;;;;;;;1.08;1.08;;;16.50;99.90;;;;;;4998302;28;20034;-81
2023/10/23 10:08:03;;;;;;;0.95;0.30;;;16.60;99.90;;;;;;4999670;28;20288;-80
2023/10/23 10:10:30;;;;;;;0.50;0.50;;;16.70;99.90;;;;;;5015556;28;20030;-81
2023/10/23 10:12:56;;;;;;;1.15;1.05;;;16.70;99.90;;;;;;5016340;28;20073;-80
2023/10/23 10:15:23;;;;;;;0.30;0.30;;;16.70;99.90;;;;;;5015583;28;20037;-81
2023/10/23 10:17:49;;;;;;;0.40;0.40;;;16.70;99.90;;;;;;5000599;28;20108;-80
2023/10/23 10:20:20;;;;;;;0.40;0.40;;;16.70;99.90;;;;;;5016847;28;20009;-82
2023/10/23 10:22:53;;;;;;;0.40;0.40;;;16.70;99.90;;;;;;5016056;28;20026;-81
2023/10/23 10:25:20;;;;;;;0.90;0.90;;;16.60;99.90;;;;;;5014326;28;20022;-81
2023/10/23 10:27:58;;;;;;;0.50;0.50;;;16.70;99.90;;;;;;4997929;28;20094;-80
2023/10/23 10:30:45;;;;;;;0.38;0.38;;;16.70;99.90;;;;;;5005702;28;20029;-80
2023/10/23 10:33:31;;;;;;;0.30;0.30;;;16.80;99.90;;;;;;4994890;28;20025;-82
2023/10/23 10:35:56;;;;;;;0.55;0.55;;;16.80;99.90;;;;;;4998284;28;20022;-81
2023/10/23 10:38:23;;;;;;;0.55;0.55;;;16.70;99.90;;;;;;5014175;28;20223;-80
2023/10/23 10:41:15;;;;;;;1.00;1.00;;;16.70;99.90;;;;;;5014396;28;20108;-81
2023/10/23 10:43:46;;;;;;;0.80;0.80;;;16.70;99.90;;;;;;4996809;28;20037;-80
2023/10/23 10:46:23;;;;;;;0.40;0.40;;;16.80;99.90;;;;;;4998808;28;20040;-81
2023/10/23 10:48:50;;;;;;;0.50;0.50;;;16.90;99.90;;;;;;5018082;28;20030;-81
2023/10/23 10:51:22;;;;;;;0.65;0.65;;;17.00;99.90;;;;;;5015494;28;20038;-81
2023/10/23 10:53:54;;;;;;;0.55;0.55;;;17.00;99.90;;;;;;5003034;28;20197;-81
2023/10/23 10:56:20;;;;;;;0.55;0.55;;;17.00;99.90;;;;;;5000707;28;20075;-82
2023/10/23 10:58:46;;;;;;;0.50;0.50;;;17.10;99.90;;;;;;5012568;28;20050;-81
2023/10/23 11:01:12;;;;;;;0.40;0.40;;;17.20;99.90;;;;;;4997682;28;20042;-81
2023/10/23 11:03:37;;;;;;;0.40;0.40;;;17.30;99.90;;;;;;5013749;28;20357;-81
2023/10/23 11:06:06;;;;;;;0.30;0.30;;;17.30;99.90;;;;;;5014612;28;20348;-80
2023/10/23 11:08:33;;;;;;;0.30;0.30;;;17.50;99.90;;;;;;5013232;28;20065;-80
2023/10/23 11:11:06;;;;;;;0.50;0.50;;;17.50;99.90;;;;;;5013725;28;21484;-80
2023/10/23 11:13:34;;;;;;;0.70;0.57;;;17.30;99.90;;;;;;5015665;28;20602;-81
2023/10/23 11:16:00;;;;;;;1.65;1.33;;;17.20;99.90;;;;;;5012061;28;20092;-79
2023/10/23 11:18:28;;;;;;;0.80;0.80;;;17.10;99.90;;;;;;4998724;28;20022;-82
2023/10/23 11:21:00;;;;;;;1.27;1.27;;;17.10;99.90;;;;;;5014272;28;20017;-82
2023/10/23 11:23:30;;;;;;;0.50;0.50;;;17.10;99.90;;;;;;5014202;28;20124;-82
2023/10/23 11:25:56;;;;;;;0.55;0.55;;;17.00;99.90;;;;;;4993637;28;20104;-83
2023/10/23 11:28:22;;;;;;;0.40;0.40;;;17.10;99.90;;;;;;4999666;28;20168;-84
2023/10/23 11:30:53;;;;;;;0.40;0.40;;;17.10;99.90;;;;;;4983650;28;20611;-83
2023/10/23 11:33:21;;;;;;;0.50;0.50;;;17.10;99.90;;;;;;4991723;28;20021;-83
2023/10/23 11:35:46;;;;;;;0.45;0.45;;;17.30;99.90;;;;;;4978874;28;20026;-81
2023/10/23 11:38:13;;;;;;;0.93;0.93;;;17.30;99.90;;;;;;5119308;23;20447;-80
2023/10/23 11:40:44;;;;;;;0.50;0.50;;;17.40;99.90;;;;;;4999927;28;20053;-80
2023/10/23 11:43:16;;;;;;;0.80;0.70;;;17.40;99.90;;;;;;4996509;28;20417;-81
2023/10/23 11:45:44;;;;;;;2.70;0.60;;;17.60;99.90;;;;;;4986438;28;20645;-80
2023/10/23 11:48:14;;;;;;;0.47;0.47;;;17.70;99.90;;;;;;5007897;28;20516;-80
2023/10/23 11:50:41;;;;;;;1.52;1.42;;;17.80;99.90;;;;;;4990185;28;20029;-81
2023/10/23 11:53:07;;;;;;;0.85;0.85;;;17.90;99.90;;;;;;5003203;28;21246;-81
2023/10/23 11:55:33;;;;;;;0.63;0.63;;;18.00;99.90;;;;;;5004277;28;20122;-81
2023/10/23 11:58:00;;;;;;;1.55;0.77;;;18.00;99.90;;;;;;4986631;28;20021;-81
2023/10/23 12:00:30;;;;;;;1.10;1.00;;;18.10;99.90;;;;;;5004957;28;20518;-81
2023/10/23 12:02:56;;;;;;;0.43;0.43;;;18.10;99.90;;;;;;4984602;28;20124;-82
2023/10/23 12:05:22;;;;;;;0.50;0.50;;;18.10;99.90;;;;;;4990214;28;20127;-81
2023/10/23 12:07:52;;;;;;;1.25;1.25;;;18.00;99.90;;;;;;4999847;28;20781;-80
2023/10/23 12:10:19;;;;;;;0.60;0.60;;;18.10;99.90;;;;;;4993596;28;20510;-80
2023/10/23 12:12:45;;;;;;;5.35;1.52;;;18.00;99.90;;;;;;4996514;28;20029;-79
2023/10/23 12:15:17;;;;;;;0.60;0.60;;;18.00;99.90;;;;;;4984902;28;20051;-80
2023/10/23 12:17:43;;;;;;;1.20;0.82;;;18.00;99.90;;;;;;4983996;28;20129;-79
2023/10/23 12:20:14;;;;;;;0.80;0.80;;;18.10;99.90;;;;;;4995620;28;20084;-80
2023/10/23 12:22:45;;;;;;;0.50;0.50;;;18.20;99.90;;;;;;4987449;28;20430;-80
2023/10/23 12:25:16;;;;;;;4.85;0.50;;;18.10;99.90;;;;;;5005841;28;20044;-80
2023/10/23 12:27:41;;;;;;;0.50;0.50;;;17.90;99.90;;;;;;5010712;28;20033;-80
2023/10/23 12:30:09;;;;;;;0.50;0.50;;;18.10;99.90;;;;;;5023221;28;20106;-79
2023/10/23 12:32:41;;;;;;;0.30;0.30;;;18.10;99.90;;;;;;5016662;28;20120;-80
2023/10/23 12:35:08;;;;;;;0.40;0.40;;;18.40;99.90;;;;;;5016065;28;20120;-80
2023/10/23 12:37:36;;;;;;;0.50;0.50;;;18.50;99.90;;;;;;5007408;28;20088;-79
2023/10/23 12:40:03;;;;;;;0.30;0.30;;;18.50;99.90;;;;;;4994753;28;20141;-80
2023/10/23 12:42:29;;;;;;;0.63;0.50;;;18.30;99.90;;;;;;5002246;28;20014;-80
2023/10/23 12:44:55;;;;;;;0.40;0.40;;;18.20;99.90;;;;;;4986265;28;20883;-80
2023/10/23 12:47:22;;;;;;;0.57;0.57;;;18.00;99.90;;;;;;5001846;28;20386;-79